createdAt,value
2023-06-23T00:00:39.132Z,20.64
2023-06-23T00:03:06.140Z,20.64
2023-06-23T00:05:33.268Z,20.70
2023-06-23T00:08:00.337Z,20.72
2023-06-23T00:10:27.003Z,20.93
2023-06-23T00:12:54.051Z,20.85
2023-06-23T00:15:20.938Z,20.66
2023-06-23T00:17:49.085Z,20.83
2023-06-23T00:20:15.978Z,20.82
2023-06-23T00:22:44.825Z,20.83
2023-06-23T00:25:13.381Z,20.76
2023-06-23T00:27:41.967Z,20.85
2023-06-23T00:30:09.225Z,20.69
2023-06-23T00:32:36.293Z,20.57
2023-06-23T00:35:03.065Z,20.58
2023-06-23T00:37:31.487Z,20.47
2023-06-23T00:39:59.398Z,20.31
2023-06-23T00:42:26.638Z,20.29
2023-06-23T00:44:54.426Z,20.30
2023-06-23T00:47:21.808Z,20.27
2023-06-23T00:49:48.626Z,20.19
2023-06-23T00:52:15.393Z,20.26
2023-06-23T00:54:42.167Z,20.25
2023-06-23T00:57:11.681Z,20.36
2023-06-23T00:59:38.471Z,20.34
2023-06-23T01:02:05.236Z,20.29
2023-06-23T01:04:34.277Z,20.23
2023-06-23T01:07:01.057Z,20.35
2023-06-23T01:09:34.282Z,20.38
2023-06-23T01:12:24.582Z,20.29
2023-06-23T01:15:06.502Z,20.28
2023-06-23T01:17:39.773Z,20.27
2023-06-23T01:20:22.442Z,20.24
2023-06-23T01:23:04.341Z,20.21
2023-06-23T01:25:31.238Z,20.16
2023-06-23T01:28:57.237Z,20.08
2023-06-23T01:31:33.043Z,19.99
2023-06-23T01:34:08.248Z,19.97
2023-06-23T01:36:44.828Z,20.02
2023-06-23T01:39:19.042Z,19.95
2023-06-23T01:41:53.394Z,19.90
2023-06-23T01:44:24.434Z,19.99
2023-06-23T01:46:54.312Z,19.97
2023-06-23T01:49:27.479Z,19.98
2023-06-23T01:51:56.123Z,20.00
2023-06-23T01:54:24.652Z,20.03
2023-06-23T01:56:52.880Z,20.02
2023-06-23T01:59:21.740Z,20.16
2023-06-23T02:01:49.817Z,20.12
2023-06-23T02:04:19.375Z,20.17
2023-06-23T02:06:51.419Z,20.23
2023-06-23T02:09:27.670Z,20.24
2023-06-23T02:11:57.124Z,20.16
2023-06-23T02:14:25.697Z,20.14
2023-06-23T02:16:54.444Z,20.16
2023-06-23T02:19:24.022Z,20.15
2023-06-23T02:21:52.450Z,20.13
2023-06-23T02:24:19.883Z,20.09
2023-06-23T02:26:48.681Z,19.98
2023-06-23T02:29:17.113Z,19.88
2023-06-23T02:31:43.882Z,19.93
2023-06-23T02:34:10.828Z,19.96
2023-06-23T02:36:52.978Z,19.96
2023-06-23T02:39:21.859Z,19.97
2023-06-23T02:41:52.931Z,19.92
2023-06-23T02:44:25.750Z,19.84
2023-06-23T02:47:04.467Z,19.78
2023-06-23T02:49:32.967Z,19.74
2023-06-23T02:52:03.955Z,19.74
2023-06-23T02:54:35.732Z,19.76
2023-06-23T02:57:03.665Z,19.74
2023-06-23T02:59:33.349Z,19.74
2023-06-23T03:02:02.129Z,19.77
2023-06-23T03:04:30.217Z,19.80
2023-06-23T03:06:57.039Z,19.78
2023-06-23T03:09:26.652Z,19.79
2023-06-23T03:11:53.447Z,19.76
2023-06-23T03:14:20.300Z,19.89
2023-06-23T03:16:47.892Z,20.11
2023-06-23T03:19:26.084Z,20.01
2023-06-23T03:22:09.346Z,20.08
2023-06-23T03:24:39.924Z,20.23
2023-06-23T03:27:08.757Z,20.09
2023-06-23T03:29:41.669Z,20.15
2023-06-23T03:32:13.759Z,20.23
2023-06-23T03:34:53.716Z,20.20
2023-06-23T03:37:23.556Z,20.31
2023-06-23T03:39:56.244Z,20.28
2023-06-23T03:42:24.370Z,20.25
2023-06-23T03:44:54.143Z,20.36
2023-06-23T03:47:25.203Z,20.45
2023-06-23T03:50:09.261Z,20.42
2023-06-23T03:52:38.749Z,20.52
2023-06-23T03:55:08.072Z,20.28
2023-06-23T03:57:36.200Z,20.43
2023-06-23T04:00:04.947Z,20.54
2023-06-23T04:02:33.382Z,20.48
2023-06-23T04:05:02.294Z,20.37
2023-06-23T04:07:30.973Z,20.32
2023-06-23T04:10:02.769Z,20.25
2023-06-23T04:12:31.469Z,20.25
2023-06-23T04:15:00.433Z,20.36
2023-06-23T04:17:29.527Z,20.23
2023-06-23T04:19:59.042Z,20.15
2023-06-23T04:22:28.919Z,20.20
2023-06-23T04:24:59.308Z,20.06
2023-06-23T04:27:26.815Z,20.15
2023-06-23T04:29:54.578Z,20.22
2023-06-23T04:32:23.436Z,20.43
2023-06-23T04:34:50.350Z,20.47
2023-06-23T04:37:26.812Z,20.56
2023-06-23T04:40:07.786Z,20.37
2023-06-23T04:42:44.091Z,20.54
2023-06-23T04:45:15.994Z,20.41
2023-06-23T04:47:44.681Z,20.35
2023-06-23T04:50:15.623Z,20.44
2023-06-23T04:52:49.380Z,20.56
2023-06-23T04:55:19.681Z,20.37
2023-06-23T04:57:49.163Z,20.49
2023-06-23T05:00:21.941Z,20.63
2023-06-23T05:02:50.168Z,20.46
2023-06-23T05:05:22.179Z,20.47
2023-06-23T05:07:51.940Z,20.25
2023-06-23T05:10:20.893Z,20.24
2023-06-23T05:12:50.818Z,20.09
2023-06-23T05:15:20.057Z,20.38
2023-06-23T05:17:49.975Z,20.18
2023-06-23T05:20:21.382Z,20.00
2023-06-23T05:22:51.670Z,20.04
2023-06-23T05:25:20.539Z,20.00
2023-06-23T05:27:51.110Z,20.13
2023-06-23T05:30:19.836Z,19.97
2023-06-23T05:32:50.277Z,19.78
2023-06-23T05:35:19.018Z,19.93
2023-06-23T05:37:47.859Z,19.97
2023-06-23T05:40:15.587Z,19.86
2023-06-23T05:42:43.587Z,19.95
2023-06-23T05:45:12.507Z,20.02
2023-06-23T05:47:46.753Z,19.86
2023-06-23T05:50:22.718Z,19.75
2023-06-23T05:52:57.954Z,19.91
2023-06-23T05:55:27.204Z,19.89
2023-06-23T05:58:01.101Z,19.91
2023-06-23T06:00:37.328Z,19.82
2023-06-23T06:03:08.517Z,19.92
2023-06-23T06:05:47.335Z,19.91
2023-06-23T06:08:15.460Z,19.96
2023-06-23T06:10:43.740Z,20.04
2023-06-23T06:13:11.585Z,20.16
2023-06-23T06:15:39.329Z,20.17
2023-06-23T06:18:08.298Z,20.05
2023-06-23T06:20:37.344Z,20.06
2023-06-23T06:23:23.275Z,20.14
2023-06-23T06:25:54.585Z,20.03
2023-06-23T06:28:24.004Z,20.32
2023-06-23T06:30:53.325Z,20.10
2023-06-23T06:33:21.759Z,20.21
2023-06-23T06:35:51.460Z,20.29
2023-06-23T06:38:20.488Z,20.51
2023-06-23T06:40:50.837Z,20.35
2023-06-23T06:43:17.901Z,20.38
2023-06-23T06:45:47.280Z,20.38
2023-06-23T06:48:15.507Z,20.43
2023-06-23T06:50:43.070Z,20.29
2023-06-23T06:53:10.797Z,20.28
2023-06-23T06:55:39.438Z,20.42
2023-06-23T06:58:06.215Z,20.64
2023-06-23T07:00:33.634Z,20.49
2023-06-23T07:03:00.765Z,20.57
2023-06-23T07:05:28.002Z,20.52
2023-06-23T07:07:55.299Z,20.65
2023-06-23T07:10:22.219Z,20.88
2023-06-23T07:12:48.971Z,20.59
2023-06-23T07:15:15.848Z,20.71
2023-06-23T07:17:42.608Z,20.63
2023-06-23T07:20:09.664Z,20.89
2023-06-23T07:22:37.195Z,20.96
2023-06-23T07:25:04.220Z,20.87
2023-06-23T07:27:31.011Z,20.76
2023-06-23T07:29:59.708Z,20.88
2023-06-23T07:32:26.993Z,20.61
2023-06-23T07:34:54.058Z,21.01
2023-06-23T07:37:20.795Z,20.88
2023-06-23T07:39:50.705Z,21.03
2023-06-23T07:42:17.386Z,21.00
2023-06-23T07:44:44.522Z,21.02
2023-06-23T07:47:14.643Z,20.90
2023-06-23T07:49:41.990Z,20.81
2023-06-23T07:52:10.793Z,20.70
2023-06-23T07:54:39.093Z,20.84
2023-06-23T07:57:09.301Z,21.15
2023-06-23T07:59:36.540Z,21.22
2023-06-23T08:02:03.273Z,21.30
2023-06-23T08:04:30.458Z,21.35
2023-06-23T08:06:57.341Z,21.34
2023-06-23T08:09:24.142Z,21.04
2023-06-23T08:11:50.997Z,21.43
2023-06-23T08:14:17.722Z,21.23
2023-06-23T08:16:44.430Z,21.11
2023-06-23T08:19:11.308Z,21.19
2023-06-23T08:21:38.113Z,21.45
2023-06-23T08:24:05.361Z,21.83
2023-06-23T08:26:32.366Z,21.80
2023-06-23T08:28:59.120Z,21.72
2023-06-23T08:31:29.840Z,21.69
2023-06-23T08:33:56.624Z,22.15
2023-06-23T08:36:23.409Z,21.65
2023-06-23T08:38:50.137Z,21.66
2023-06-23T08:41:21.311Z,21.82
2023-06-23T08:43:49.564Z,22.09
2023-06-23T08:46:17.042Z,22.10
2023-06-23T08:48:47.406Z,22.39
2023-06-23T08:51:16.312Z,22.56
2023-06-23T08:53:43.897Z,22.58
2023-06-23T08:56:11.124Z,22.90
2023-06-23T08:58:38.143Z,22.68
2023-06-23T09:01:07.069Z,22.60
2023-06-23T09:03:35.419Z,22.75
2023-06-23T09:06:02.901Z,23.42
2023-06-23T09:08:29.627Z,23.67
2023-06-23T09:10:56.416Z,23.84
2023-06-23T09:13:28.419Z,23.94
2023-06-23T09:16:02.268Z,23.86
2023-06-23T09:18:40.391Z,22.89
2023-06-23T09:21:08.920Z,23.43
2023-06-23T09:23:35.975Z,23.70
2023-06-23T09:26:05.228Z,23.37
2023-06-23T09:28:37.758Z,23.39
2023-06-23T09:31:09.413Z,23.95
2023-06-23T09:33:36.517Z,23.12
2023-06-23T09:36:06.530Z,22.65
2023-06-23T09:38:37.838Z,23.19
2023-06-23T09:41:16.814Z,23.28
2023-06-23T09:43:45.567Z,23.09
2023-06-23T09:46:14.540Z,23.36
2023-06-23T09:48:42.080Z,23.83
2023-06-23T09:51:08.858Z,23.96
2023-06-23T09:53:37.743Z,23.71
2023-06-23T09:56:06.691Z,23.60
2023-06-23T09:58:41.912Z,24.69
2023-06-23T10:01:11.899Z,24.19
2023-06-23T10:03:53.932Z,23.67
2023-06-23T10:06:28.459Z,24.12
2023-06-23T10:08:56.781Z,24.92
2023-06-23T10:11:36.504Z,24.02
2023-06-23T10:14:08.399Z,24.08
2023-06-23T10:16:36.607Z,24.26
2023-06-23T10:19:04.642Z,23.70
2023-06-23T10:21:32.717Z,23.83
2023-06-23T10:24:03.769Z,23.62
2023-06-23T10:26:32.908Z,23.53
2023-06-23T10:29:01.324Z,23.57
2023-06-23T10:31:32.356Z,23.11
2023-06-23T10:34:02.165Z,23.02
2023-06-23T10:36:31.664Z,22.94
2023-06-23T10:39:02.213Z,23.16
2023-06-23T10:41:29.113Z,23.14
2023-06-23T10:43:58.147Z,23.47
2023-06-23T10:46:27.005Z,23.60
2023-06-23T10:48:54.268Z,23.48
2023-06-23T10:51:22.214Z,23.40
2023-06-23T10:54:03.626Z,23.61
2023-06-23T10:56:34.689Z,23.87
2023-06-23T10:59:18.838Z,24.21
2023-06-23T11:02:01.023Z,23.96
2023-06-23T11:04:32.081Z,24.01
2023-06-23T11:07:16.697Z,23.58
2023-06-23T11:09:56.549Z,23.95
2023-06-23T11:12:32.320Z,24.75
2023-06-23T11:15:28.319Z,25.04
2023-06-23T11:18:01.225Z,25.59
2023-06-23T11:20:30.620Z,24.83
2023-06-23T11:23:01.662Z,25.15
2023-06-23T11:25:31.196Z,25.57
2023-06-23T11:28:30.464Z,26.12
2023-06-23T11:31:06.959Z,26.21
2023-06-23T11:33:38.103Z,26.38
2023-06-23T11:36:13.373Z,26.32
2023-06-23T11:38:41.686Z,26.10
2023-06-23T11:41:08.725Z,26.00
2023-06-23T11:43:38.710Z,26.43
2023-06-23T11:46:09.488Z,26.22
2023-06-23T11:48:37.574Z,26.81
2023-06-23T11:51:05.897Z,26.17
2023-06-23T11:53:32.816Z,26.63
2023-06-23T11:56:00.666Z,26.97
2023-06-23T11:58:32.143Z,25.86
2023-06-23T12:00:59.074Z,25.86
2023-06-23T12:03:30.729Z,25.30
2023-06-23T12:05:57.968Z,25.46
2023-06-23T12:08:28.052Z,25.74
2023-06-23T12:10:55.557Z,25.38
2023-06-23T12:13:22.548Z,25.16
2023-06-23T12:15:49.411Z,25.26
2023-06-23T12:18:16.124Z,24.67
2023-06-23T12:20:46.462Z,24.75
2023-06-23T12:23:14.972Z,24.93
2023-06-23T12:25:46.635Z,25.10
2023-06-23T12:28:19.134Z,25.23
2023-06-23T12:30:49.394Z,24.48
2023-06-23T12:33:26.235Z,24.68
2023-06-23T12:36:04.327Z,24.86
2023-06-23T12:38:36.004Z,24.23
2023-06-23T12:41:25.998Z,24.05
2023-06-23T12:43:58.353Z,24.20
2023-06-23T12:46:26.344Z,24.06
2023-06-23T12:48:55.310Z,24.15
2023-06-23T12:51:38.856Z,24.39
2023-06-23T12:54:06.227Z,24.97
2023-06-23T12:56:33.295Z,24.79
2023-06-23T12:59:00.136Z,24.76
2023-06-23T13:01:26.880Z,24.92
2023-06-23T13:03:53.698Z,24.37
2023-06-23T13:06:20.880Z,24.85
2023-06-23T13:08:53.050Z,24.91
2023-06-23T13:11:19.963Z,25.13
2023-06-23T13:13:46.690Z,25.06
2023-06-23T13:16:13.664Z,25.04
2023-06-23T13:18:40.927Z,26.20
2023-06-23T13:21:07.742Z,26.36
2023-06-23T13:23:34.432Z,26.24
2023-06-23T13:26:01.183Z,25.63
2023-06-23T13:28:27.870Z,25.57
2023-06-23T13:30:54.580Z,25.71
2023-06-23T13:33:23.392Z,26.00
2023-06-23T13:35:50.189Z,26.19
2023-06-23T13:38:16.912Z,25.99
2023-06-23T13:40:43.594Z,25.14
2023-06-23T13:43:10.332Z,25.46
2023-06-23T13:45:37.042Z,25.08
2023-06-23T13:48:04.150Z,25.03
2023-06-23T13:50:31.353Z,25.41
2023-06-23T13:52:58.056Z,25.81
2023-06-23T13:55:24.921Z,26.09
2023-06-23T13:57:51.643Z,26.61
2023-06-23T14:00:19.058Z,26.43
2023-06-23T14:02:45.804Z,25.63
2023-06-23T14:05:15.228Z,25.81
2023-06-23T14:07:42.044Z,25.79
2023-06-23T14:10:09.314Z,25.37
2023-06-23T14:12:36.107Z,25.60
2023-06-23T14:15:02.843Z,25.50
2023-06-23T14:17:31.212Z,26.30
2023-06-23T14:19:58.054Z,26.49
2023-06-23T14:22:25.657Z,26.34
2023-06-23T14:24:52.486Z,25.75
2023-06-23T14:27:19.284Z,25.78
2023-06-23T14:29:45.996Z,25.95
2023-06-23T14:32:12.754Z,25.36
2023-06-23T14:34:39.665Z,25.39
2023-06-23T14:37:06.652Z,25.59
2023-06-23T14:39:33.372Z,25.38
2023-06-23T14:42:00.156Z,25.98
2023-06-23T14:44:27.900Z,25.66
2023-06-23T14:46:56.818Z,25.66
2023-06-23T14:49:23.607Z,25.63
2023-06-23T14:51:50.441Z,25.75
2023-06-23T14:54:17.388Z,25.29
2023-06-23T14:56:45.640Z,25.58
2023-06-23T14:59:12.428Z,25.66
2023-06-23T15:01:39.284Z,25.99
2023-06-23T15:04:06.089Z,26.32
2023-06-23T15:06:32.777Z,25.54
2023-06-23T15:08:59.572Z,25.67
2023-06-23T15:11:26.659Z,25.33
2023-06-23T15:13:53.317Z,25.16
2023-06-23T15:16:20.075Z,25.60
2023-06-23T15:18:46.791Z,25.14
2023-06-23T15:21:13.494Z,24.94
2023-06-23T15:23:40.186Z,25.01
2023-06-23T15:26:07.024Z,25.28
2023-06-23T15:28:33.707Z,25.27
2023-06-23T15:31:00.879Z,24.47
2023-06-23T15:33:29.180Z,24.73
2023-06-23T15:35:56.480Z,25.28
2023-06-23T15:38:25.895Z,24.89
2023-06-23T15:40:52.670Z,25.41
2023-06-23T15:43:20.908Z,24.96
2023-06-23T15:45:47.914Z,25.31
2023-06-23T15:48:14.743Z,25.16
2023-06-23T15:50:41.653Z,24.99
2023-06-23T15:53:08.888Z,25.00
2023-06-23T15:55:35.816Z,25.12
2023-06-23T15:58:03.690Z,25.04
2023-06-23T16:00:30.497Z,24.86
2023-06-23T16:02:57.425Z,25.16
2023-06-23T16:05:25.082Z,24.82
2023-06-23T16:07:52.392Z,24.83
2023-06-23T16:10:20.231Z,24.68
2023-06-23T16:12:47.072Z,24.85
2023-06-23T16:15:14.959Z,24.63
2023-06-23T16:17:46.047Z,24.39
2023-06-23T16:20:12.948Z,24.25
2023-06-23T16:22:39.654Z,24.70
2023-06-23T16:25:06.595Z,24.48
2023-06-23T16:27:34.200Z,24.49
2023-06-23T16:30:01.813Z,24.40
2023-06-23T16:32:28.712Z,24.53
2023-06-23T16:34:59.522Z,24.13
2023-06-23T16:37:27.300Z,24.18
2023-06-23T16:39:56.208Z,24.12
2023-06-23T16:42:23.108Z,24.13
2023-06-23T16:44:50.921Z,24.06
2023-06-23T16:47:17.904Z,24.17
2023-06-23T16:49:44.690Z,23.79
2023-06-23T16:52:11.559Z,23.75
2023-06-23T16:54:39.003Z,23.95
2023-06-23T16:57:08.956Z,23.66
2023-06-23T16:59:36.830Z,23.83
2023-06-23T17:02:03.699Z,23.86
2023-06-23T17:04:30.639Z,23.79
2023-06-23T17:06:57.357Z,23.67
2023-06-23T17:09:24.172Z,23.42
2023-06-23T17:11:57.841Z,23.14
2023-06-23T17:14:35.262Z,23.18
2023-06-23T17:17:02.398Z,22.91
2023-06-23T17:19:29.065Z,22.63
2023-06-23T17:21:55.779Z,22.55
2023-06-23T17:24:22.821Z,22.55
2023-06-23T17:26:49.575Z,22.61
2023-06-23T17:29:16.252Z,22.35
2023-06-23T17:31:43.854Z,22.34
2023-06-23T17:34:11.840Z,22.08
2023-06-23T17:36:40.467Z,22.14
2023-06-23T17:39:07.439Z,22.07
2023-06-23T17:41:34.754Z,21.93
2023-06-23T17:44:01.419Z,22.14
2023-06-23T17:46:28.290Z,21.97
2023-06-23T17:48:55.457Z,22.12
2023-06-23T17:51:22.206Z,21.93
2023-06-23T17:53:50.125Z,22.00
2023-06-23T17:56:17.188Z,21.84
2023-06-23T17:58:43.898Z,21.71
2023-06-23T18:01:11.108Z,21.58
2023-06-23T18:03:38.467Z,21.48
2023-06-23T18:06:05.529Z,21.51
2023-06-23T18:08:32.312Z,21.58
2023-06-23T18:10:59.061Z,21.63
2023-06-23T18:13:25.735Z,21.42
2023-06-23T18:15:52.628Z,21.28
2023-06-23T18:18:19.404Z,21.16
2023-06-23T18:20:47.034Z,21.28
2023-06-23T18:23:13.711Z,21.13
2023-06-23T18:25:40.626Z,20.97
2023-06-23T18:28:07.313Z,20.96
2023-06-23T18:30:34.255Z,20.76
2023-06-23T18:33:01.279Z,20.72
2023-06-23T18:35:28.012Z,20.65
2023-06-23T18:37:54.712Z,20.49
2023-06-23T18:40:21.687Z,20.61
2023-06-23T18:42:48.858Z,20.45
2023-06-23T18:45:15.860Z,20.30
2023-06-23T18:47:42.658Z,20.30
2023-06-23T18:50:09.896Z,20.20
2023-06-23T18:52:37.923Z,20.04
2023-06-23T18:55:04.915Z,20.05
2023-06-23T18:57:32.729Z,20.08
2023-06-23T18:59:59.871Z,19.92
2023-06-23T19:02:26.756Z,19.96
2023-06-23T19:04:53.554Z,19.98
2023-06-23T19:07:20.428Z,19.91
2023-06-23T19:09:47.241Z,19.86
2023-06-23T19:12:14.195Z,19.77
2023-06-23T19:14:41.035Z,19.79
2023-06-23T19:17:09.151Z,19.70
2023-06-23T19:19:40.375Z,19.64
2023-06-23T19:22:08.042Z,19.53
2023-06-23T19:24:38.581Z,19.51
2023-06-23T19:27:08.248Z,19.48
2023-06-23T19:29:35.302Z,19.42
2023-06-23T19:32:02.383Z,19.42
2023-06-23T19:34:32.292Z,19.32
2023-06-23T19:36:59.990Z,19.32
2023-06-23T19:39:26.788Z,19.10
2023-06-23T19:41:53.610Z,19.09
2023-06-23T19:44:20.344Z,18.99
2023-06-23T19:46:47.064Z,19.01
2023-06-23T19:49:14.365Z,18.95
2023-06-23T19:51:41.100Z,18.87
2023-06-23T19:54:07.890Z,18.80
2023-06-23T19:56:34.595Z,18.77
2023-06-23T19:59:01.419Z,18.80
2023-06-23T20:01:28.233Z,18.54
2023-06-23T20:03:55.052Z,18.62
2023-06-23T20:06:23.085Z,18.49
2023-06-23T20:08:50.235Z,18.47
2023-06-23T20:11:17.641Z,18.50
2023-06-23T20:13:44.651Z,18.50
2023-06-23T20:16:11.887Z,18.54
2023-06-23T20:18:39.951Z,18.49
2023-06-23T20:21:06.681Z,18.42
2023-06-23T20:23:34.493Z,18.35
2023-06-23T20:26:02.387Z,18.40
2023-06-23T20:28:29.336Z,18.31
2023-06-23T20:30:56.070Z,18.25
2023-06-23T20:33:23.033Z,18.19
2023-06-23T20:35:50.203Z,18.13
2023-06-23T20:38:17.343Z,18.08
2023-06-23T20:40:45.501Z,18.00
2023-06-23T20:43:12.627Z,17.90
2023-06-23T20:45:40.201Z,17.88
2023-06-23T20:48:07.946Z,17.89
2023-06-23T20:50:35.356Z,17.79
2023-06-23T20:53:02.578Z,17.81
2023-06-23T20:55:29.373Z,17.77
2023-06-23T20:57:56.968Z,17.75
2023-06-23T21:00:23.721Z,17.68
2023-06-23T21:02:50.627Z,17.68
2023-06-23T21:05:17.639Z,17.69
2023-06-23T21:07:45.157Z,17.64
2023-06-23T21:10:38.749Z,17.63
2023-06-23T21:12:59.306Z,17.57
2023-06-23T21:15:26.243Z,17.64
2023-06-23T21:17:54.707Z,17.56
2023-06-23T21:20:26.697Z,17.61
2023-06-23T21:22:55.580Z,17.62
2023-06-23T21:25:23.240Z,17.60
2023-06-23T21:27:51.309Z,17.45
2023-06-23T21:30:18.770Z,17.33
2023-06-23T21:32:45.725Z,17.35
2023-06-23T21:35:15.790Z,17.32
2023-06-23T21:37:46.645Z,17.29
2023-06-23T21:40:19.442Z,17.29
2023-06-23T21:42:46.716Z,17.24
2023-06-23T21:45:13.736Z,17.28
2023-06-23T21:47:40.569Z,17.24
2023-06-23T21:50:08.198Z,17.13
2023-06-23T21:52:34.931Z,17.12
2023-06-23T21:55:01.743Z,17.16
2023-06-23T21:57:28.468Z,17.04
2023-06-23T21:59:55.314Z,17.11
2023-06-23T22:02:22.175Z,16.98
2023-06-23T22:04:49.247Z,16.90
2023-06-23T22:07:16.154Z,16.96
2023-06-23T22:09:43.409Z,16.88
2023-06-23T22:12:10.448Z,16.87
2023-06-23T22:14:37.332Z,16.75
2023-06-23T22:17:04.292Z,16.79
2023-06-23T22:19:31.207Z,16.70
2023-06-23T22:21:58.250Z,16.68
2023-06-23T22:24:24.975Z,16.60
2023-06-23T22:26:51.635Z,16.52
2023-06-23T22:29:18.434Z,16.44
2023-06-23T22:31:45.389Z,16.39
2023-06-23T22:34:12.173Z,16.33
2023-06-23T22:36:39.875Z,16.35
2023-06-23T22:39:06.579Z,16.30
2023-06-23T22:41:33.332Z,16.24
2023-06-23T22:44:00.050Z,16.20
2023-06-23T22:46:27.048Z,16.19
2023-06-23T22:48:57.166Z,16.19
2023-06-23T22:51:24.538Z,16.13
2023-06-23T22:53:51.430Z,16.13
2023-06-23T22:56:20.928Z,16.07
2023-06-23T22:58:49.039Z,16.01
2023-06-23T23:01:17.383Z,15.86
2023-06-23T23:03:44.305Z,15.93
2023-06-23T23:06:11.225Z,15.87
2023-06-23T23:08:38.154Z,15.86
2023-06-23T23:11:05.160Z,15.75
2023-06-23T23:13:31.961Z,15.73
2023-06-23T23:15:58.657Z,15.66
2023-06-23T23:18:25.337Z,15.67
2023-06-23T23:20:52.004Z,15.66
2023-06-23T23:23:18.737Z,15.64
2023-06-23T23:25:46.033Z,15.65
2023-06-23T23:28:12.764Z,15.71
2023-06-23T23:30:39.435Z,15.70
2023-06-23T23:33:06.390Z,15.65
2023-06-23T23:35:40.087Z,15.56
2023-06-23T23:38:07.403Z,15.48
2023-06-23T23:40:34.714Z,15.52
2023-06-23T23:43:01.819Z,15.48
2023-06-23T23:45:28.720Z,15.44
2023-06-23T23:47:55.476Z,15.36
2023-06-23T23:50:22.246Z,15.29
2023-06-23T23:52:49.120Z,15.22
2023-06-23T23:55:15.851Z,15.15
2023-06-23T23:57:42.717Z,15.11
